createdAt,value
2023-03-26T00:01:25.001Z,95.72
2023-03-26T00:03:57.833Z,95.63
2023-03-26T00:06:29.387Z,95.74
2023-03-26T00:08:57.913Z,95.84
2023-03-26T00:11:28.875Z,95.68
2023-03-26T00:14:00.134Z,95.60
2023-03-26T00:16:29.955Z,95.93
2023-03-26T00:18:57.723Z,95.95
2023-03-26T00:21:27.788Z,95.83
2023-03-26T00:24:07.910Z,95.96
2023-03-26T00:26:37.535Z,95.90
2023-03-26T00:29:08.319Z,95.94
2023-03-26T00:31:37.888Z,95.88
2023-03-26T00:34:05.708Z,95.98
2023-03-26T00:36:35.903Z,95.92
2023-03-26T00:39:06.340Z,96.13
2023-03-26T00:41:36.809Z,96.18
2023-03-26T00:44:03.354Z,96.01
2023-03-26T00:46:37.468Z,96.03
2023-03-26T00:49:10.948Z,96.06
2023-03-26T00:51:39.061Z,96.13
2023-03-26T00:54:07.702Z,96.15
2023-03-26T00:56:37.037Z,96.28
2023-03-26T00:59:03.648Z,95.99
2023-03-26T01:01:30.683Z,96.26
2023-03-26T01:04:18.513Z,96.04
2023-03-26T01:06:45.201Z,96.14
2023-03-26T01:09:19.119Z,96.31
2023-03-26T01:11:49.490Z,96.33
2023-03-26T01:14:26.875Z,96.37
2023-03-26T01:16:58.012Z,96.30
2023-03-26T01:19:38.447Z,96.20
2023-03-26T01:22:12.948Z,96.39
2023-03-26T01:24:40.665Z,96.31
2023-03-26T01:27:20.763Z,96.32
2023-03-26T01:29:54.210Z,96.45
2023-03-26T01:32:23.095Z,96.50
2023-03-26T01:35:20.355Z,96.59
2023-03-26T01:38:11.259Z,96.50
2023-03-26T01:40:54.896Z,96.69
2023-03-26T01:43:30.435Z,96.63
2023-03-26T01:46:05.778Z,96.66
2023-03-26T01:48:36.917Z,96.77
2023-03-26T01:51:04.799Z,96.67
2023-03-26T01:53:33.418Z,96.69
2023-03-26T01:56:19.293Z,96.82
2023-03-26T01:59:16.817Z,96.83
2023-03-26T02:02:04.841Z,96.89
2023-03-26T02:04:41.116Z,96.71
2023-03-26T02:07:21.286Z,96.75
2023-03-26T02:09:53.990Z,96.89
2023-03-26T02:12:22.970Z,96.65
2023-03-26T02:14:50.300Z,96.67
2023-03-26T02:17:16.845Z,96.64
2023-03-26T02:19:46.173Z,96.89
2023-03-26T02:22:17.486Z,96.90
2023-03-26T02:24:44.982Z,96.99
2023-03-26T02:27:18.411Z,96.83
2023-03-26T02:29:45.344Z,96.63
2023-03-26T02:32:19.330Z,96.94
2023-03-26T02:34:53.636Z,97.02
2023-03-26T02:37:20.104Z,97.06
2023-03-26T02:39:46.957Z,97.20
2023-03-26T02:42:13.411Z,96.92
2023-03-26T02:44:41.299Z,97.00
2023-03-26T02:47:08.227Z,97.30
2023-03-26T02:49:34.716Z,97.31
2023-03-26T02:52:06.389Z,97.30
2023-03-26T02:54:35.113Z,97.26
2023-03-26T02:57:03.963Z,97.27
2023-03-26T02:59:30.956Z,97.41
2023-03-26T03:01:57.552Z,97.49
2023-03-26T03:04:26.577Z,97.28
2023-03-26T03:06:57.966Z,97.34
2023-03-26T03:09:27.191Z,97.32
2023-03-26T03:11:56.205Z,97.33
2023-03-26T03:14:22.750Z,97.40
2023-03-26T03:16:51.799Z,97.33
2023-03-26T03:19:20.732Z,97.50
2023-03-26T03:21:49.538Z,97.51
2023-03-26T03:24:18.505Z,97.49
2023-03-26T03:26:50.354Z,97.83
2023-03-26T03:29:19.419Z,97.77
2023-03-26T03:31:45.940Z,97.80
2023-03-26T03:34:12.424Z,97.66
2023-03-26T03:36:38.943Z,97.80
2023-03-26T03:39:08.137Z,97.93
2023-03-26T03:41:34.646Z,97.83
2023-03-26T03:44:03.391Z,97.69
2023-03-26T03:46:29.903Z,97.95
2023-03-26T03:49:03.364Z,97.71
2023-03-26T03:51:29.881Z,97.72
2023-03-26T03:53:58.712Z,97.72
2023-03-26T03:56:26.141Z,97.75
2023-03-26T03:58:53.008Z,97.82
2023-03-26T04:01:22.657Z,97.64
2023-03-26T04:03:49.371Z,97.69
2023-03-26T04:06:18.753Z,97.73
2023-03-26T04:08:46.451Z,97.69
2023-03-26T04:11:16.013Z,97.57
2023-03-26T04:13:43.647Z,97.59
2023-03-26T04:16:12.724Z,97.78
2023-03-26T04:18:41.645Z,98.14
2023-03-26T04:21:12.413Z,97.79
2023-03-26T04:23:38.985Z,97.72
2023-03-26T04:26:13.362Z,97.73
2023-03-26T04:28:46.367Z,97.60
2023-03-26T04:31:24.242Z,97.52
2023-03-26T04:33:55.294Z,97.54
2023-03-26T04:36:28.500Z,97.57
2023-03-26T04:39:02.364Z,97.71
2023-03-26T04:41:32.698Z,97.54
2023-03-26T04:44:03.772Z,97.48
2023-03-26T04:46:33.606Z,97.57
2023-03-26T04:49:01.231Z,97.48
2023-03-26T04:51:38.621Z,97.46
2023-03-26T04:54:08.520Z,97.50
2023-03-26T04:57:03.445Z,97.49
2023-03-26T04:59:34.960Z,97.40
2023-03-26T05:02:06.121Z,97.35
2023-03-26T05:04:37.161Z,97.33
2023-03-26T05:07:03.666Z,97.28
2023-03-26T05:09:30.664Z,97.44
2023-03-26T05:11:58.477Z,97.41
2023-03-26T05:14:25.018Z,97.43
2023-03-26T05:16:53.260Z,97.47
2023-03-26T05:19:19.941Z,97.51
2023-03-26T05:21:48.658Z,97.40
2023-03-26T05:24:15.437Z,97.37
2023-03-26T05:26:44.526Z,97.50
2023-03-26T05:29:14.897Z,97.60
2023-03-26T05:31:44.662Z,97.58
2023-03-26T05:34:15.947Z,97.33
2023-03-26T05:36:42.871Z,97.38
2023-03-26T05:39:09.432Z,97.51
2023-03-26T05:41:35.905Z,97.52
2023-03-26T05:44:02.365Z,97.53
2023-03-26T05:46:28.990Z,97.37
2023-03-26T05:48:55.618Z,97.36
2023-03-26T05:51:23.480Z,97.50
2023-03-26T05:53:49.991Z,97.53
2023-03-26T05:56:16.528Z,97.38
2023-03-26T05:58:45.310Z,97.67
2023-03-26T06:01:16.805Z,97.50
2023-03-26T06:03:45.306Z,97.64
2023-03-26T06:06:15.482Z,97.79
2023-03-26T06:08:43.573Z,97.74
2023-03-26T06:11:12.713Z,97.96
2023-03-26T06:13:40.092Z,97.89
2023-03-26T06:16:09.404Z,97.68
2023-03-26T06:18:56.624Z,97.62
2023-03-26T06:21:28.109Z,97.70
2023-03-26T06:23:55.513Z,97.87
2023-03-26T06:26:26.668Z,97.67
2023-03-26T06:28:53.153Z,97.76
2023-03-26T06:31:22.145Z,97.63
2023-03-26T06:33:51.313Z,97.58
2023-03-26T06:36:17.863Z,97.40
2023-03-26T06:38:44.497Z,97.55
2023-03-26T06:41:11.060Z,97.53
2023-03-26T06:43:39.945Z,97.35
2023-03-26T06:46:08.797Z,97.02
2023-03-26T06:48:38.118Z,97.07
2023-03-26T06:51:11.955Z,97.11
2023-03-26T06:53:38.415Z,96.98
2023-03-26T06:56:09.148Z,96.77
2023-03-26T06:58:41.232Z,96.62
2023-03-26T07:01:10.118Z,96.50
2023-03-26T07:03:36.702Z,96.60
2023-03-26T07:06:05.644Z,96.44
2023-03-26T07:08:34.696Z,96.66
2023-03-26T07:11:03.618Z,96.63
2023-03-26T07:13:30.125Z,96.39
2023-03-26T07:15:59.076Z,96.44
2023-03-26T07:18:28.208Z,96.53
2023-03-26T07:20:55.286Z,96.51
2023-03-26T07:23:22.155Z,96.45
2023-03-26T07:25:52.165Z,96.59
2023-03-26T07:28:27.552Z,96.38
2023-03-26T07:31:12.863Z,96.42
2023-03-26T07:33:46.847Z,96.32
2023-03-26T07:36:48.304Z,96.33
2023-03-26T07:39:30.249Z,96.36
2023-03-26T07:42:22.021Z,96.32
2023-03-26T07:45:18.560Z,96.32
2023-03-26T07:47:49.403Z,96.17
2023-03-26T07:50:22.442Z,96.16
2023-03-26T07:52:49.694Z,95.85
2023-03-26T07:55:19.800Z,95.73
2023-03-26T07:58:14.428Z,95.49
2023-03-26T08:00:48.897Z,95.41
2023-03-26T08:03:21.902Z,95.44
2023-03-26T08:06:05.416Z,95.18
2023-03-26T08:08:47.906Z,95.15
2023-03-26T08:11:34.639Z,94.79
2023-03-26T08:14:36.479Z,94.71
2023-03-26T08:17:12.806Z,94.83
2023-03-26T08:20:18.645Z,94.38
2023-03-26T08:22:50.806Z,93.99
2023-03-26T08:25:27.565Z,94.13
2023-03-26T08:28:27.973Z,94.08
2023-03-26T08:30:57.048Z,93.94
2023-03-26T08:33:29.546Z,93.99
2023-03-26T08:35:56.162Z,94.27
2023-03-26T08:38:22.746Z,94.13
2023-03-26T08:41:09.280Z,94.30
2023-03-26T08:44:05.464Z,94.21
2023-03-26T08:46:59.141Z,94.43
2023-03-26T08:49:46.104Z,94.12
2023-03-26T08:52:38.972Z,94.46
2023-03-26T08:55:30.871Z,94.16
2023-03-26T08:58:28.318Z,94.60
2023-03-26T09:01:30.730Z,94.46
2023-03-26T09:04:30.825Z,94.74
2023-03-26T09:07:09.929Z,94.65
2023-03-26T09:09:57.394Z,94.31
2023-03-26T09:12:36.125Z,94.48
2023-03-26T09:15:42.406Z,94.54
2023-03-26T09:18:53.790Z,94.59
2023-03-26T09:21:58.418Z,94.51
2023-03-26T09:24:55.800Z,94.55
2023-03-26T09:27:52.905Z,94.62
2023-03-26T09:30:29.820Z,94.73
2023-03-26T09:32:59.376Z,94.44
2023-03-26T09:35:40.561Z,94.24
2023-03-26T09:38:32.111Z,94.29
2023-03-26T09:41:17.886Z,93.76
2023-03-26T09:44:05.806Z,93.85
2023-03-26T09:47:09.422Z,93.64
2023-03-26T09:50:13.571Z,93.37
2023-03-26T09:52:43.636Z,93.64
2023-03-26T09:55:31.672Z,93.62
2023-03-26T09:58:07.274Z,93.69
2023-03-26T10:00:44.033Z,93.79
2023-03-26T10:03:38.429Z,93.25
2023-03-26T10:06:14.004Z,93.23
2023-03-26T10:09:02.938Z,93.45
2023-03-26T10:12:14.554Z,93.62
2023-03-26T10:15:01.984Z,93.55
2023-03-26T10:17:37.269Z,93.94
2023-03-26T10:20:44.170Z,94.19
2023-03-26T10:23:15.896Z,93.91
2023-03-26T10:25:51.598Z,93.83
2023-03-26T10:28:59.438Z,93.71
2023-03-26T10:31:42.606Z,93.67
2023-03-26T10:34:28.516Z,93.38
2023-03-26T10:37:21.811Z,93.66
2023-03-26T10:40:25.795Z,93.66
2023-03-26T10:43:12.877Z,93.52
2023-03-26T10:45:59.521Z,93.56
2023-03-26T10:48:52.946Z,93.91
2023-03-26T10:51:44.496Z,94.05
2023-03-26T10:54:49.354Z,93.72
2023-03-26T10:57:26.552Z,93.19
2023-03-26T11:00:01.210Z,93.83
2023-03-26T11:02:30.998Z,94.03
2023-03-26T11:05:35.940Z,93.85
2023-03-26T11:08:10.841Z,93.76
2023-03-26T11:11:02.092Z,93.66
2023-03-26T11:13:31.536Z,93.56
2023-03-26T11:16:41.496Z,93.46
2023-03-26T11:19:30.308Z,92.52
2023-03-26T11:22:01.696Z,92.84
2023-03-26T11:24:43.367Z,92.14
2023-03-26T11:27:29.320Z,92.49
2023-03-26T11:30:09.977Z,91.87
2023-03-26T11:32:52.757Z,91.33
2023-03-26T11:35:40.791Z,89.37
2023-03-26T11:38:33.518Z,89.27
2023-03-26T11:41:02.232Z,89.96
2023-03-26T11:43:34.985Z,88.62
2023-03-26T11:46:04.557Z,88.62
2023-03-26T11:48:47.026Z,88.92
2023-03-26T11:51:34.841Z,89.62
2023-03-26T11:54:10.852Z,89.25
2023-03-26T11:57:05.461Z,88.67
2023-03-26T11:59:53.300Z,88.82
2023-03-26T12:02:29.483Z,89.21
2023-03-26T12:05:33.546Z,89.46
2023-03-26T12:08:17.740Z,90.16
2023-03-26T12:10:44.516Z,89.70
2023-03-26T12:13:37.148Z,89.51
2023-03-26T12:16:09.810Z,88.99
2023-03-26T12:18:39.765Z,88.00
2023-03-26T12:21:18.366Z,88.41
2023-03-26T12:24:05.332Z,88.11
2023-03-26T12:26:34.593Z,86.94
2023-03-26T12:29:20.321Z,85.85
2023-03-26T12:32:07.287Z,85.77
2023-03-26T12:34:39.747Z,82.54
2023-03-26T12:37:27.363Z,83.55
2023-03-26T12:40:27.796Z,82.78
2023-03-26T12:44:47.301Z,82.92
2023-03-26T12:46:20.720Z,81.27
2023-03-26T12:48:41.600Z,80.63
2023-03-26T12:51:16.179Z,79.67
2023-03-26T12:54:16.634Z,79.66
2023-03-26T12:57:12.203Z,79.59
2023-03-26T12:59:52.347Z,78.74
2023-03-26T13:02:29.635Z,78.35
2023-03-26T13:05:28.453Z,77.21
2023-03-26T13:08:16.161Z,76.96
2023-03-26T13:11:04.452Z,75.41
2023-03-26T13:13:45.630Z,77.58
2023-03-26T13:16:38.934Z,75.57
2023-03-26T13:19:16.006Z,74.46
2023-03-26T13:21:46.691Z,72.91
2023-03-26T13:24:33.705Z,73.27
2023-03-26T13:27:09.672Z,73.13
2023-03-26T13:29:56.991Z,74.48
2023-03-26T13:32:36.066Z,72.19
2023-03-26T13:35:14.707Z,74.13
2023-03-26T13:37:41.188Z,72.38
2023-03-26T13:40:10.334Z,72.57
2023-03-26T13:42:41.197Z,70.97
2023-03-26T13:45:35.402Z,73.37
2023-03-26T13:48:09.186Z,72.96
2023-03-26T13:50:40.903Z,74.23
2023-03-26T13:53:30.917Z,71.27
2023-03-26T13:55:59.917Z,71.83
2023-03-26T13:58:52.330Z,70.57
2023-03-26T14:01:22.088Z,70.00
2023-03-26T14:04:22.065Z,70.25
2023-03-26T14:07:23.316Z,69.84
2023-03-26T14:10:11.188Z,69.50
2023-03-26T14:12:54.066Z,71.10
2023-03-26T14:15:43.809Z,71.05
2023-03-26T14:18:49.190Z,70.88
2023-03-26T14:21:27.931Z,71.42
2023-03-26T14:24:19.455Z,71.69
2023-03-26T14:27:05.987Z,70.34
2023-03-26T14:29:58.600Z,70.60
2023-03-26T14:32:47.551Z,71.44
2023-03-26T14:35:26.235Z,69.22
2023-03-26T14:38:13.462Z,70.95
2023-03-26T14:40:39.936Z,70.10
2023-03-26T14:43:29.789Z,69.20
2023-03-26T14:46:07.552Z,68.57
2023-03-26T14:48:51.669Z,70.51
2023-03-26T14:51:37.187Z,70.08
2023-03-26T14:54:15.635Z,68.62
2023-03-26T14:56:51.207Z,69.34
2023-03-26T14:59:47.231Z,69.08
2023-03-26T15:02:24.012Z,70.05
2023-03-26T15:04:53.684Z,70.82
2023-03-26T15:07:48.907Z,70.03
2023-03-26T15:10:47.345Z,69.36
2023-03-26T15:13:46.045Z,66.56
2023-03-26T15:16:36.667Z,67.52
2023-03-26T15:19:29.085Z,68.07
2023-03-26T15:22:20.505Z,67.20
2023-03-26T15:25:05.410Z,68.25
2023-03-26T15:28:14.953Z,67.73
2023-03-26T15:31:00.182Z,68.05
2023-03-26T15:33:47.018Z,66.62
2023-03-26T15:36:38.185Z,67.39
2023-03-26T15:39:23.397Z,66.47
2023-03-26T15:42:12.037Z,67.44
2023-03-26T15:45:13.974Z,66.29
2023-03-26T15:47:49.771Z,66.93
2023-03-26T15:50:41.762Z,65.44
2023-03-26T15:53:34.959Z,66.32
2023-03-26T15:56:22.213Z,67.09
2023-03-26T15:59:25.864Z,66.94
2023-03-26T16:02:04.592Z,66.68
2023-03-26T16:05:03.234Z,65.71
2023-03-26T16:08:02.977Z,66.18
2023-03-26T16:10:58.303Z,65.54
2023-03-26T16:13:49.203Z,64.87
2023-03-26T16:16:18.058Z,65.12
2023-03-26T16:18:54.202Z,64.64
2023-03-26T16:21:38.482Z,65.94
2023-03-26T16:24:08.465Z,65.52
2023-03-26T16:26:43.870Z,63.93
2023-03-26T16:29:30.123Z,64.08
2023-03-26T16:32:32.945Z,64.71
2023-03-26T16:35:09.933Z,64.38
2023-03-26T16:37:39.545Z,65.58
2023-03-26T16:40:18.608Z,65.81
2023-03-26T16:43:06.424Z,65.05
2023-03-26T16:46:00.477Z,65.99
2023-03-26T16:49:01.826Z,63.99
2023-03-26T16:51:59.624Z,63.46
2023-03-26T16:54:38.115Z,64.03
2023-03-26T16:57:19.636Z,64.20
2023-03-26T17:00:07.355Z,63.75
2023-03-26T17:02:46.401Z,63.55
2023-03-26T17:05:35.919Z,62.97
2023-03-26T17:08:35.600Z,63.86
2023-03-26T17:11:38.466Z,63.65
2023-03-26T17:14:35.661Z,63.09
2023-03-26T17:17:22.829Z,62.38
2023-03-26T17:20:18.990Z,61.11
2023-03-26T17:22:54.360Z,61.71
2023-03-26T17:25:36.292Z,62.09
2023-03-26T17:28:24.176Z,61.43
2023-03-26T17:30:56.617Z,62.36
2023-03-26T17:33:32.542Z,63.33
2023-03-26T17:36:11.359Z,64.04
2023-03-26T17:38:45.197Z,61.55
2023-03-26T17:41:17.726Z,62.58
2023-03-26T17:43:51.268Z,62.93
2023-03-26T17:46:33.467Z,62.35
2023-03-26T17:49:07.502Z,61.34
2023-03-26T17:51:42.881Z,62.46
2023-03-26T17:54:19.867Z,63.29
2023-03-26T17:56:47.656Z,61.19
2023-03-26T17:59:28.817Z,61.34
2023-03-26T18:02:06.908Z,61.25
2023-03-26T18:04:35.795Z,61.66
2023-03-26T18:07:15.370Z,61.81
2023-03-26T18:10:16.063Z,62.05
2023-03-26T18:13:10.973Z,61.78
2023-03-26T18:15:48.671Z,62.36
2023-03-26T18:18:30.297Z,62.92
2023-03-26T18:20:59.893Z,63.11
2023-03-26T18:23:39.345Z,63.88
2023-03-26T18:26:38.304Z,64.11
2023-03-26T18:29:16.143Z,64.33
2023-03-26T18:31:45.887Z,63.69
2023-03-26T18:34:20.694Z,63.80
2023-03-26T18:37:11.518Z,64.24
2023-03-26T18:39:38.505Z,64.95
2023-03-26T18:42:06.595Z,64.91
2023-03-26T18:44:39.102Z,65.55
2023-03-26T18:47:10.314Z,65.30
2023-03-26T18:49:37.935Z,65.67
2023-03-26T18:52:05.000Z,65.23
2023-03-26T18:54:36.701Z,63.96
2023-03-26T18:57:22.306Z,64.86
2023-03-26T18:59:52.788Z,64.53
2023-03-26T19:02:20.602Z,65.40
2023-03-26T19:04:49.494Z,66.02
2023-03-26T19:07:24.125Z,66.44
2023-03-26T19:09:54.730Z,67.04
2023-03-26T19:12:28.999Z,67.78
2023-03-26T19:14:58.581Z,68.38
2023-03-26T19:17:29.383Z,68.41
2023-03-26T19:19:57.407Z,68.79
2023-03-26T19:22:24.595Z,69.22
2023-03-26T19:24:58.878Z,69.41
2023-03-26T19:27:25.662Z,68.96
2023-03-26T19:29:56.456Z,69.46
2023-03-26T19:32:34.645Z,69.90
2023-03-26T19:35:02.198Z,69.96
2023-03-26T19:37:30.691Z,70.38
2023-03-26T19:40:07.579Z,69.75
2023-03-26T19:42:42.838Z,69.71
2023-03-26T19:45:19.075Z,69.24
2023-03-26T19:47:57.300Z,68.97
2023-03-26T19:50:34.578Z,68.71
2023-03-26T19:53:19.314Z,68.80
2023-03-26T19:56:07.542Z,68.47
2023-03-26T19:58:36.816Z,68.80
2023-03-26T20:01:04.060Z,68.44
2023-03-26T20:03:39.001Z,67.81
2023-03-26T20:06:10.267Z,68.36
2023-03-26T20:08:36.937Z,67.55
2023-03-26T20:11:06.496Z,67.40
2023-03-26T20:13:37.877Z,67.22
2023-03-26T20:16:10.559Z,66.93
2023-03-26T20:18:37.719Z,67.29
2023-03-26T20:21:15.058Z,66.74
2023-03-26T20:23:41.715Z,66.69
2023-03-26T20:26:16.277Z,67.21
2023-03-26T20:28:48.658Z,66.84
2023-03-26T20:31:25.204Z,67.61
2023-03-26T20:33:53.624Z,67.60
2023-03-26T20:36:34.214Z,67.72
2023-03-26T20:39:08.196Z,68.61
2023-03-26T20:41:43.168Z,68.51
2023-03-26T20:44:13.950Z,68.28
2023-03-26T20:46:44.062Z,68.04
2023-03-26T20:49:14.906Z,68.40
2023-03-26T20:51:46.902Z,67.96
2023-03-26T20:54:21.639Z,68.74
2023-03-26T20:56:48.964Z,68.60
2023-03-26T20:59:27.938Z,68.35
2023-03-26T21:01:56.750Z,68.30
2023-03-26T21:04:24.708Z,68.76
2023-03-26T21:06:55.662Z,68.94
2023-03-26T21:09:35.585Z,68.93
2023-03-26T21:12:17.779Z,69.31
2023-03-26T21:14:46.652Z,69.64
2023-03-26T21:17:19.498Z,69.29
2023-03-26T21:19:48.329Z,69.64
2023-03-26T21:22:44.422Z,69.75
2023-03-26T21:25:17.373Z,69.75
2023-03-26T21:27:59.039Z,70.29
2023-03-26T21:30:25.939Z,70.47
2023-03-26T21:32:55.210Z,70.70
2023-03-26T21:35:22.528Z,71.11
2023-03-26T21:37:49.478Z,71.52
2023-03-26T21:40:18.866Z,71.70
2023-03-26T21:42:48.263Z,71.90
2023-03-26T21:45:15.139Z,72.18
2023-03-26T21:47:42.074Z,72.38
2023-03-26T21:50:11.297Z,72.35
2023-03-26T21:52:46.644Z,72.74
2023-03-26T21:55:18.402Z,72.83
2023-03-26T21:58:12.647Z,73.05
2023-03-26T22:01:02.691Z,73.10
2023-03-26T22:03:44.503Z,73.02
2023-03-26T22:06:22.352Z,73.15
2023-03-26T22:08:49.086Z,73.21
2023-03-26T22:11:17.990Z,73.40
2023-03-26T22:13:45.314Z,73.79
2023-03-26T22:16:16.708Z,73.53
2023-03-26T22:18:46.720Z,74.08
2023-03-26T22:21:14.120Z,73.81
2023-03-26T22:23:40.544Z,73.65
2023-03-26T22:26:07.289Z,73.51
2023-03-26T22:28:34.001Z,73.73
2023-03-26T22:31:07.175Z,74.03
2023-03-26T22:33:35.732Z,74.33
2023-03-26T22:36:02.232Z,74.43
2023-03-26T22:38:31.128Z,74.67
2023-03-26T22:41:00.161Z,74.75
2023-03-26T22:43:27.302Z,75.01
2023-03-26T22:45:54.879Z,75.78
2023-03-26T22:48:24.720Z,75.85
2023-03-26T22:51:08.163Z,76.44
2023-03-26T22:53:35.986Z,77.01
2023-03-26T22:56:02.988Z,77.54
2023-03-26T22:58:35.642Z,77.89
2023-03-26T23:01:18.050Z,78.45
2023-03-26T23:03:47.537Z,78.63
2023-03-26T23:06:21.685Z,79.23
2023-03-26T23:08:48.826Z,79.59
2023-03-26T23:11:18.204Z,79.65
2023-03-26T23:13:46.452Z,80.26
2023-03-26T23:16:16.902Z,80.53
2023-03-26T23:18:47.639Z,80.76
2023-03-26T23:21:19.173Z,80.80
2023-03-26T23:23:47.032Z,81.34
2023-03-26T23:26:16.264Z,81.55
2023-03-26T23:28:45.067Z,81.72
2023-03-26T23:31:14.448Z,82.16
2023-03-26T23:33:47.422Z,82.37
2023-03-26T23:36:17.673Z,82.60
2023-03-26T23:38:48.821Z,82.78
2023-03-26T23:41:18.657Z,83.12
2023-03-26T23:43:53.820Z,83.24
2023-03-26T23:46:25.861Z,83.19
2023-03-26T23:48:52.521Z,83.57
2023-03-26T23:51:24.121Z,84.04
2023-03-26T23:53:51.056Z,84.05
2023-03-26T23:56:21.066Z,84.28
2023-03-26T23:58:48.899Z,84.47
